sensor_id;sensor_type;location;lat;lon;timestamp;temperature;humidity
25248;DHT22;13191;47.472;11.214;2023-04-19T03:34:08;6.90;99.90
25248;DHT22;13191;47.472;11.214;2023-04-19T03:36:33;6.80;99.90
25248;DHT22;13191;47.472;11.214;2023-04-19T03:38:59;6.70;99.90
25248;DHT22;13191;47.472;11.214;2023-04-19T03:41:25;6.60;99.90
25248;DHT22;13191;47.472;11.214;2023-04-19T03:43:50;6.50;99.90
25248;DHT22;13191;47.472;11.214;2023-04-19T03:46:16;6.50;99.90
25248;DHT22;13191;47.472;11.214;2023-04-19T03:48:42;6.40;99.90
25248;DHT22;13191;47.472;11.214;2023-04-19T03:51:07;6.30;99.90
25248;DHT22;13191;47.472;11.214;2023-04-19T03:53:32;6.30;99.90
25248;DHT22;13191;47.472;11.214;2023-04-19T03:55:58;6.20;99.90
25248;DHT22;13191;47.472;11.214;2023-04-19T03:58:23;6.20;99.90
25248;DHT22;13191;47.472;11.214;2023-04-19T04:00:49;6.20;99.90
25248;DHT22;13191;47.472;11.214;2023-04-19T04:03:16;6.20;99.90
25248;DHT22;13191;47.472;11.214;2023-04-19T04:05:41;6.10;99.90
25248;DHT22;13191;47.472;11.214;2023-04-19T04:08:07;5.90;99.90
25248;DHT22;13191;47.472;11.214;2023-04-19T04:10:32;5.70;99.90
25248;DHT22;13191;47.472;11.214;2023-04-19T04:12:58;5.80;99.90
25248;DHT22;13191;47.472;11.214;2023-04-19T04:15:23;5.80;99.90
25248;DHT22;13191;47.472;11.214;2023-04-19T04:17:49;5.80;99.90
25248;DHT22;13191;47.472;11.214;2023-04-19T04:20:14;5.70;99.90
25248;DHT22;13191;47.472;11.214;2023-04-19T04:22:41;5.80;99.90
25248;DHT22;13191;47.472;11.214;2023-04-19T04:25:07;5.70;99.90
25248;DHT22;13191;47.472;11.214;2023-04-19T04:27:32;5.70;99.90
25248;DHT22;13191;47.472;11.214;2023-04-19T04:29:58;5.70;99.90
25248;DHT22;13191;47.472;11.214;2023-04-19T04:32:23;5.80;99.90
25248;DHT22;13191;47.472;11.214;2023-04-19T04:34:49;5.80;99.90
25248;DHT22;13191;47.472;11.214;2023-04-19T04:37:15;5.80;99.90
25248;DHT22;13191;47.472;11.214;2023-04-19T04:39:42;5.80;99.90
25248;DHT22;13191;47.472;11.214;2023-04-19T04:42:07;5.70;99.90
25248;DHT22;13191;47.472;11.214;2023-04-19T04:44:36;5.60;99.90
25248;DHT22;13191;47.472;11.214;2023-04-19T04:47:03;5.60;99.90
25248;DHT22;13191;47.472;11.214;2023-04-19T04:49:28;5.60;99.90
25248;DHT22;13191;47.472;11.214;2023-04-19T04:51:54;5.60;99.90
25248;DHT22;13191;47.472;11.214;2023-04-19T04:54:20;5.70;99.90
25248;DHT22;13191;47.472;11.214;2023-04-19T04:56:45;5.60;99.90
25248;DHT22;13191;47.472;11.214;2023-04-19T04:59:11;5.50;99.90
25248;DHT22;13191;47.472;11.214;2023-04-19T05:01:36;5.50;99.90
25248;DHT22;13191;47.472;11.214;2023-04-19T05:04:02;5.50;99.90
25248;DHT22;13191;47.472;11.214;2023-04-19T05:06:27;5.40;99.90
25248;DHT22;13191;47.472;11.214;2023-04-19T05:08:53;5.40;99.90
25248;DHT22;13191;47.472;11.214;2023-04-19T05:11:19;5.50;99.90
25248;DHT22;13191;47.472;11.214;2023-04-19T05:13:44;5.50;99.90
25248;DHT22;13191;47.472;11.214;2023-04-19T05:16:10;5.50;99.90
25248;DHT22;13191;47.472;11.214;2023-04-19T05:18:35;5.60;99.90
25248;DHT22;13191;47.472;11.214;2023-04-19T05:21:01;5.60;99.90
25248;DHT22;13191;47.472;11.214;2023-04-19T05:23:26;5.60;99.90
25248;DHT22;13191;47.472;11.214;2023-04-19T05:25:52;5.70;99.90
25248;DHT22;13191;47.472;11.214;2023-04-19T05:28:17;5.70;99.90
25248;DHT22;13191;47.472;11.214;2023-04-19T05:30:42;5.70;99.90
25248;DHT22;13191;47.472;11.214;2023-04-19T05:33:08;5.60;99.90
25248;DHT22;13191;47.472;11.214;2023-04-19T05:35:33;5.60;99.90
25248;DHT22;13191;47.472;11.214;2023-04-19T05:37:59;5.60;99.90
25248;DHT22;13191;47.472;11.214;2023-04-19T05:40:24;5.70;99.90
25248;DHT22;13191;47.472;11.214;2023-04-19T05:42:50;5.70;99.90
25248;DHT22;13191;47.472;11.214;2023-04-19T05:45:15;5.80;99.90
25248;DHT22;13191;47.472;11.214;2023-04-19T05:47:42;5.80;99.90
25248;DHT22;13191;47.472;11.214;2023-04-19T05:50:08;5.90;99.90
25248;DHT22;13191;47.472;11.214;2023-04-19T05:52:34;6.00;99.90
25248;DHT22;13191;47.472;11.214;2023-04-19T05:54:59;6.10;99.90
25248;DHT22;13191;47.472;11.214;2023-04-19T05:57:25;6.10;99.90
25248;DHT22;13191;47.472;11.214;2023-04-19T05:59:51;6.20;99.90
25248;DHT22;13191;47.472;11.214;2023-04-19T06:02:17;6.20;99.90
25248;DHT22;13191;47.472;11.214;2023-04-19T06:04:42;6.30;99.90
25248;DHT22;13191;47.472;11.214;2023-04-19T06:07:08;6.30;99.90
25248;DHT22;13191;47.472;11.214;2023-04-19T06:09:33;6.30;99.90
25248;DHT22;13191;47.472;11.214;2023-04-19T06:11:59;6.40;99.90
25248;DHT22;13191;47.472;11.214;2023-04-19T06:14:26;6.40;99.90
25248;DHT22;13191;47.472;11.214;2023-04-19T06:16:52;6.40;99.90
25248;DHT22;13191;47.472;11.214;2023-04-19T06:19:17;6.40;99.90
25248;DHT22;13191;47.472;11.214;2023-04-19T06:21:43;6.50;99.90
25248;DHT22;13191;47.472;11.214;2023-04-19T06:24:08;6.60;99.90
25248;DHT22;13191;47.472;11.214;2023-04-19T06:26:35;6.60;99.90
25248;DHT22;13191;47.472;11.214;2023-04-19T06:29:00;6.60;99.90
25248;DHT22;13191;47.472;11.214;2023-04-19T06:31:26;6.70;99.90
25248;DHT22;13191;47.472;11.214;2023-04-19T06:33:51;6.70;99.90
25248;DHT22;13191;47.472;11.214;2023-04-19T06:36:17;6.80;99.90
25248;DHT22;13191;47.472;11.214;2023-04-19T06:38:42;6.80;99.90
25248;DHT22;13191;47.472;11.214;2023-04-19T06:41:09;6.90;99.90
25248;DHT22;13191;47.472;11.214;2023-04-19T06:43:34;7.00;99.90
25248;DHT22;13191;47.472;11.214;2023-04-19T06:46:00;7.00;99.90
25248;DHT22;13191;47.472;11.214;2023-04-19T06:48:26;7.00;99.90
25248;DHT22;13191;47.472;11.214;2023-04-19T06:50:52;7.00;99.90
25248;DHT22;13191;47.472;11.214;2023-04-19T06:53:18;7.10;99.90
25248;DHT22;13191;47.472;11.214;2023-04-19T06:55:43;7.20;99.90
25248;DHT22;13191;47.472;11.214;2023-04-19T06:58:09;7.20;99.90
25248;DHT22;13191;47.472;11.214;2023-04-19T07:00:35;7.20;99.90
25248;DHT22;13191;47.472;11.214;2023-04-19T07:03:01;7.30;99.90
25248;DHT22;13191;47.472;11.214;2023-04-19T07:05:26;7.30;99.90
25248;DHT22;13191;47.472;11.214;2023-04-19T07:07:52;7.40;99.90
25248;DHT22;13191;47.472;11.214;2023-04-19T07:10:17;7.40;99.90
25248;DHT22;13191;47.472;11.214;2023-04-19T07:12:43;7.50;99.90
25248;DHT22;13191;47.472;11.214;2023-04-19T07:15:08;7.60;99.90
25248;DHT22;13191;47.472;11.214;2023-04-19T07:17:34;7.70;99.90
25248;DHT22;13191;47.472;11.214;2023-04-19T07:20:00;7.70;99.90
25248;DHT22;13191;47.472;11.214;2023-04-19T07:22:26;7.70;99.90
25248;DHT22;13191;47.472;11.214;2023-04-19T07:24:51;7.80;99.90
25248;DHT22;13191;47.472;11.214;2023-04-19T07:27:17;7.90;99.90
25248;DHT22;13191;47.472;11.214;2023-04-19T07:29:42;8.00;99.90
25248;DHT22;13191;47.472;11.214;2023-04-19T07:32:08;8.00;99.90
25248;DHT22;13191;47.472;11.214;2023-04-19T07:34:34;8.10;99.90
25248;DHT22;13191;47.472;11.214;2023-04-19T07:37:00;8.10;99.90
25248;DHT22;13191;47.472;11.214;2023-04-19T07:39:26;8.20;99.90
25248;DHT22;13191;47.472;11.214;2023-04-19T07:41:51;8.10;99.90
25248;DHT22;13191;47.472;11.214;2023-04-19T07:44:17;8.10;99.90
25248;DHT22;13191;47.472;11.214;2023-04-19T07:46:42;8.10;99.90
25248;DHT22;13191;47.472;11.214;2023-04-19T07:49:11;8.20;99.90
25248;DHT22;13191;47.472;11.214;2023-04-19T07:51:36;8.30;99.90
25248;DHT22;13191;47.472;11.214;2023-04-19T07:54:02;8.40;99.90
25248;DHT22;13191;47.472;11.214;2023-04-19T07:56:27;8.40;99.90
25248;DHT22;13191;47.472;11.214;2023-04-19T07:58:53;8.40;99.90
25248;DHT22;13191;47.472;11.214;2023-04-19T08:01:18;8.40;99.90
25248;DHT22;13191;47.472;11.214;2023-04-19T08:03:44;8.40;99.90
25248;DHT22;13191;47.472;11.214;2023-04-19T08:06:11;8.50;99.90
25248;DHT22;13191;47.472;11.214;2023-04-19T08:08:37;8.50;99.90
25248;DHT22;13191;47.472;11.214;2023-04-19T08:11:03;8.60;99.90
25248;DHT22;13191;47.472;11.214;2023-04-19T08:13:28;8.60;99.90
25248;DHT22;13191;47.472;11.214;2023-04-19T08:15:54;8.60;99.90
25248;DHT22;13191;47.472;11.214;2023-04-19T08:18:19;8.60;99.90
25248;DHT22;13191;47.472;11.214;2023-04-19T08:20:45;8.70;99.90
25248;DHT22;13191;47.472;11.214;2023-04-19T08:23:11;8.60;99.90
25248;DHT22;13191;47.472;11.214;2023-04-19T08:25:37;8.70;99.90
25248;DHT22;13191;47.472;11.214;2023-04-19T08:28:02;8.70;99.90
25248;DHT22;13191;47.472;11.214;2023-04-19T08:30:28;8.60;99.90
25248;DHT22;13191;47.472;11.214;2023-04-19T08:32:53;8.60;99.90
25248;DHT22;13191;47.472;11.214;2023-04-19T08:35:20;8.60;99.90
25248;DHT22;13191;47.472;11.214;2023-04-19T08:37:45;8.60;99.90
25248;DHT22;13191;47.472;11.214;2023-04-19T08:40:12;8.60;99.90
25248;DHT22;13191;47.472;11.214;2023-04-19T08:42:39;8.70;99.90
25248;DHT22;13191;47.472;11.214;2023-04-19T08:45:05;8.80;99.90
25248;DHT22;13191;47.472;11.214;2023-04-19T08:47:31;8.80;99.90
25248;DHT22;13191;47.472;11.214;2023-04-19T08:50:02;8.90;99.90
25248;DHT22;13191;47.472;11.214;2023-04-19T08:52:28;8.90;99.90
25248;DHT22;13191;47.472;11.214;2023-04-19T08:54:54;8.90;99.90
25248;DHT22;13191;47.472;11.214;2023-04-19T08:57:20;8.90;99.90
25248;DHT22;13191;47.472;11.214;2023-04-19T08:59:45;8.90;99.90
25248;DHT22;13191;47.472;11.214;2023-04-19T09:02:15;9.00;99.90
25248;DHT22;13191;47.472;11.214;2023-04-19T09:04:40;9.00;99.90
25248;DHT22;13191;47.472;11.214;2023-04-19T09:07:06;9.00;99.90
25248;DHT22;13191;47.472;11.214;2023-04-19T09:09:33;9.10;99.90
25248;DHT22;13191;47.472;11.214;2023-04-19T09:12:00;9.00;99.90
25248;DHT22;13191;47.472;11.214;2023-04-19T09:14:26;9.00;99.90
25248;DHT22;13191;47.472;11.214;2023-04-19T09:16:52;9.10;99.90
25248;DHT22;13191;47.472;11.214;2023-04-19T09:19:17;9.20;99.90
25248;DHT22;13191;47.472;11.214;2023-04-19T09:21:43;9.20;99.90
25248;DHT22;13191;47.472;11.214;2023-04-19T09:24:09;9.30;99.90
25248;DHT22;13191;47.472;11.214;2023-04-19T09:26:35;9.30;99.90
25248;DHT22;13191;47.472;11.214;2023-04-19T09:29:02;9.30;99.90
25248;DHT22;13191;47.472;11.214;2023-04-19T09:31:29;9.20;99.90
25248;DHT22;13191;47.472;11.214;2023-04-19T09:33:54;9.10;99.90
25248;DHT22;13191;47.472;11.214;2023-04-19T09:36:27;9.10;99.90
25248;DHT22;13191;47.472;11.214;2023-04-19T09:38:53;9.10;99.90
25248;DHT22;13191;47.472;11.214;2023-04-19T09:41:18;9.10;99.90
25248;DHT22;13191;47.472;11.214;2023-04-19T09:43:44;9.10;99.90
25248;DHT22;13191;47.472;11.214;2023-04-19T09:46:28;9.20;99.90
25248;DHT22;13191;47.472;11.214;2023-04-19T09:48:56;9.30;99.90
25248;DHT22;13191;47.472;11.214;2023-04-19T09:51:47;9.30;99.90
25248;DHT22;13191;47.472;11.214;2023-04-19T09:54:14;9.30;99.90
25248;DHT22;13191;47.472;11.214;2023-04-19T09:56:40;9.40;99.90
25248;DHT22;13191;47.472;11.214;2023-04-19T09:59:06;9.40;99.90
25248;DHT22;13191;47.472;11.214;2023-04-19T10:01:36;9.40;99.90
25248;DHT22;13191;47.472;11.214;2023-04-19T10:04:03;9.40;99.90
25248;DHT22;13191;47.472;11.214;2023-04-19T10:06:33;9.50;99.90
25248;DHT22;13191;47.472;11.214;2023-04-19T10:09:02;9.50;99.90
25248;DHT22;13191;47.472;11.214;2023-04-19T10:11:30;9.40;99.90
25248;DHT22;13191;47.472;11.214;2023-04-19T10:13:57;9.20;99.90
25248;DHT22;13191;47.472;11.214;2023-04-19T10:16:25;9.20;99.90
25248;DHT22;13191;47.472;11.214;2023-04-19T10:18:50;9.20;99.90
25248;DHT22;13191;47.472;11.214;2023-04-19T10:21:17;9.20;99.90
25248;DHT22;13191;47.472;11.214;2023-04-19T10:23:43;9.30;99.90
25248;DHT22;13191;47.472;11.214;2023-04-19T10:26:08;9.30;99.90
25248;DHT22;13191;47.472;11.214;2023-04-19T10:28:34;9.40;99.90
25248;DHT22;13191;47.472;11.214;2023-04-19T10:31:01;9.40;99.90
25248;DHT22;13191;47.472;11.214;2023-04-19T10:33:28;9.50;99.90
25248;DHT22;13191;47.472;11.214;2023-04-19T10:35:55;9.50;99.90
25248;DHT22;13191;47.472;11.214;2023-04-19T10:38:34;9.60;99.90
25248;DHT22;13191;47.472;11.214;2023-04-19T10:41:00;9.70;99.90
25248;DHT22;13191;47.472;11.214;2023-04-19T10:43:26;9.80;99.90
25248;DHT22;13191;47.472;11.214;2023-04-19T10:45:52;9.80;99.90
25248;DHT22;13191;47.472;11.214;2023-04-19T10:51:14;9.90;99.90
25248;DHT22;13191;47.472;11.214;2023-04-19T10:53:56;9.90;99.90
25248;DHT22;13191;47.472;11.214;2023-04-19T11:01:45;9.80;99.90
25248;DHT22;13191;47.472;11.214;2023-04-19T11:04:16;9.90;99.90
25248;DHT22;13191;47.472;11.214;2023-04-19T11:11:47;10.10;99.90
25248;DHT22;13191;47.472;11.214;2023-04-19T11:14:13;10.10;99.90
25248;DHT22;13191;47.472;11.214;2023-04-19T11:16:38;10.20;99.90
25248;DHT22;13191;47.472;11.214;2023-04-19T11:19:04;10.30;99.90
25248;DHT22;13191;47.472;11.214;2023-04-19T11:21:29;10.40;99.90
25248;DHT22;13191;47.472;11.214;2023-04-19T11:24:08;10.40;99.90
25248;DHT22;13191;47.472;11.214;2023-04-19T11:26:34;10.50;99.90
25248;DHT22;13191;47.472;11.214;2023-04-19T11:28:59;10.40;99.90
25248;DHT22;13191;47.472;11.214;2023-04-19T11:31:25;10.40;99.90
25248;DHT22;13191;47.472;11.214;2023-04-19T11:33:51;10.40;99.90
25248;DHT22;13191;47.472;11.214;2023-04-19T11:36:17;10.50;99.90
25248;DHT22;13191;47.472;11.214;2023-04-19T11:38:46;10.50;99.90
25248;DHT22;13191;47.472;11.214;2023-04-19T11:41:12;10.60;99.90
25248;DHT22;13191;47.472;11.214;2023-04-19T11:43:37;10.60;99.90
25248;DHT22;13191;47.472;11.214;2023-04-19T11:46:10;10.70;99.90
25248;DHT22;13191;47.472;11.214;2023-04-19T11:51:02;10.70;99.90
25248;DHT22;13191;47.472;11.214;2023-04-19T11:53:29;10.80;99.90
25248;DHT22;13191;47.472;11.214;2023-04-19T11:56:05;10.90;99.90
25248;DHT22;13191;47.472;11.214;2023-04-19T11:58:32;10.90;99.90
25248;DHT22;13191;47.472;11.214;2023-04-19T12:01:04;10.80;99.90
25248;DHT22;13191;47.472;11.214;2023-04-19T12:03:31;10.80;99.90
25248;DHT22;13191;47.472;11.214;2023-04-19T12:05:58;10.80;99.90
25248;DHT22;13191;47.472;11.214;2023-04-19T12:08:37;10.80;99.90
25248;DHT22;13191;47.472;11.214;2023-04-19T12:11:04;10.80;99.90
25248;DHT22;13191;47.472;11.214;2023-04-19T12:13:30;10.70;99.90
25248;DHT22;13191;47.472;11.214;2023-04-19T12:15:56;10.70;99.90
25248;DHT22;13191;47.472;11.214;2023-04-19T12:18:21;10.60;99.90
25248;DHT22;13191;47.472;11.214;2023-04-19T12:20:47;10.60;99.90
25248;DHT22;13191;47.472;11.214;2023-04-19T12:23:13;10.50;99.90
25248;DHT22;13191;47.472;11.214;2023-04-19T12:25:40;10.60;99.90
25248;DHT22;13191;47.472;11.214;2023-04-19T12:28:06;10.60;99.90
25248;DHT22;13191;47.472;11.214;2023-04-19T12:30:31;10.60;99.90
25248;DHT22;13191;47.472;11.214;2023-04-19T12:32:57;10.60;99.90
25248;DHT22;13191;47.472;11.214;2023-04-19T12:35:23;10.60;99.90
25248;DHT22;13191;47.472;11.214;2023-04-19T12:37:51;10.60;99.90
25248;DHT22;13191;47.472;11.214;2023-04-19T12:40:16;10.60;99.90
25248;DHT22;13191;47.472;11.214;2023-04-19T12:42:42;10.60;99.90
25248;DHT22;13191;47.472;11.214;2023-04-19T12:45:07;10.70;99.90
25248;DHT22;13191;47.472;11.214;2023-04-19T12:47:33;10.60;99.90
25248;DHT22;13191;47.472;11.214;2023-04-19T12:49:58;10.60;99.90
25248;DHT22;13191;47.472;11.214;2023-04-19T12:52:24;10.60;99.90
25248;DHT22;13191;47.472;11.214;2023-04-19T12:54:50;10.50;99.90
25248;DHT22;13191;47.472;11.214;2023-04-19T12:57:15;10.40;99.90
25248;DHT22;13191;47.472;11.214;2023-04-19T12:59:41;10.30;99.90
25248;DHT22;13191;47.472;11.214;2023-04-19T13:02:06;10.40;99.90
25248;DHT22;13191;47.472;11.214;2023-04-19T13:04:32;10.30;99.90
25248;DHT22;13191;47.472;11.214;2023-04-19T13:06:58;10.40;99.90
25248;DHT22;13191;47.472;11.214;2023-04-19T13:09:25;10.40;99.90
25248;DHT22;13191;47.472;11.214;2023-04-19T13:11:51;10.40;99.90
25248;DHT22;13191;47.472;11.214;2023-04-19T13:14:16;10.40;99.90
25248;DHT22;13191;47.472;11.214;2023-04-19T13:16:41;10.40;99.90
25248;DHT22;13191;47.472;11.214;2023-04-19T13:19:07;10.50;99.90
25248;DHT22;13191;47.472;11.214;2023-04-19T13:21:32;10.50;99.90
25248;DHT22;13191;47.472;11.214;2023-04-19T13:23:58;10.50;99.90
25248;DHT22;13191;47.472;11.214;2023-04-19T13:26:24;10.40;99.90
25248;DHT22;13191;47.472;11.214;2023-04-19T13:28:49;10.30;99.90
25248;DHT22;13191;47.472;11.214;2023-04-19T13:31:15;10.30;99.90
25248;DHT22;13191;47.472;11.214;2023-04-19T13:33:40;10.30;99.90
25248;DHT22;13191;47.472;11.214;2023-04-19T13:36:06;10.30;99.90
25248;DHT22;13191;47.472;11.214;2023-04-19T13:38:31;10.30;99.90
25248;DHT22;13191;47.472;11.214;2023-04-19T13:40:57;10.20;99.90
25248;DHT22;13191;47.472;11.214;2023-04-19T13:43:23;10.20;99.90
25248;DHT22;13191;47.472;11.214;2023-04-19T13:45:48;10.20;99.90
25248;DHT22;13191;47.472;11.214;2023-04-19T13:48:14;10.20;99.90
25248;DHT22;13191;47.472;11.214;2023-04-19T13:50:39;10.10;99.90
25248;DHT22;13191;47.472;11.214;2023-04-19T13:53:05;10.10;99.90
25248;DHT22;13191;47.472;11.214;2023-04-19T13:55:30;10.00;99.90
25248;DHT22;13191;47.472;11.214;2023-04-19T13:57:56;10.00;99.90
25248;DHT22;13191;47.472;11.214;2023-04-19T14:00:21;9.90;99.90
25248;DHT22;13191;47.472;11.214;2023-04-19T14:02:48;10.00;99.90
25248;DHT22;13191;47.472;11.214;2023-04-19T14:05:13;10.00;99.90
25248;DHT22;13191;47.472;11.214;2023-04-19T14:07:39;10.00;99.90
25248;DHT22;13191;47.472;11.214;2023-04-19T14:10:05;10.00;99.90
25248;DHT22;13191;47.472;11.214;2023-04-19T14:12:32;10.00;99.90
25248;DHT22;13191;47.472;11.214;2023-04-19T14:14:57;10.00;99.90
25248;DHT22;13191;47.472;11.214;2023-04-19T14:17:23;9.90;99.90
25248;DHT22;13191;47.472;11.214;2023-04-19T14:19:48;9.90;99.90
25248;DHT22;13191;47.472;11.214;2023-04-19T14:22:17;9.80;99.90
25248;DHT22;13191;47.472;11.214;2023-04-19T14:24:42;9.90;99.90
25248;DHT22;13191;47.472;11.214;2023-04-19T14:27:08;9.90;99.90
25248;DHT22;13191;47.472;11.214;2023-04-19T14:29:33;9.90;99.90
25248;DHT22;13191;47.472;11.214;2023-04-19T14:31:59;9.90;99.90
25248;DHT22;13191;47.472;11.214;2023-04-19T14:34:25;9.90;99.90
25248;DHT22;13191;47.472;11.214;2023-04-19T14:36:51;9.90;99.90
25248;DHT22;13191;47.472;11.214;2023-04-19T14:39:16;9.90;99.90
25248;DHT22;13191;47.472;11.214;2023-04-19T14:41:42;9.80;99.90
25248;DHT22;13191;47.472;11.214;2023-04-19T14:44:07;9.70;99.90
25248;DHT22;13191;47.472;11.214;2023-04-19T14:46:32;9.50;99.90
25248;DHT22;13191;47.472;11.214;2023-04-19T14:48:59;9.30;99.90
25248;DHT22;13191;47.472;11.214;2023-04-19T14:51:28;9.30;99.90
25248;DHT22;13191;47.472;11.214;2023-04-19T14:53:54;9.20;99.90
25248;DHT22;13191;47.472;11.214;2023-04-19T14:56:19;9.20;99.90
25248;DHT22;13191;47.472;11.214;2023-04-19T14:58:45;9.30;99.90
25248;DHT22;13191;47.472;11.214;2023-04-19T15:01:11;9.30;99.90
25248;DHT22;13191;47.472;11.214;2023-04-19T15:03:36;9.30;99.90
25248;DHT22;13191;47.472;11.214;2023-04-19T15:06:02;9.30;99.90
25248;DHT22;13191;47.472;11.214;2023-04-19T15:08:28;9.30;99.90
25248;DHT22;13191;47.472;11.214;2023-04-19T15:10:54;9.30;99.90
25248;DHT22;13191;47.472;11.214;2023-04-19T15:13:19;9.30;99.90
25248;DHT22;13191;47.472;11.214;2023-04-19T15:15:45;9.30;99.90
25248;DHT22;13191;47.472;11.214;2023-04-19T15:18:10;9.30;99.90
25248;DHT22;13191;47.472;11.214;2023-04-19T15:20:36;9.40;99.90
25248;DHT22;13191;47.472;11.214;2023-04-19T15:23:01;9.40;99.90
25248;DHT22;13191;47.472;11.214;2023-04-19T15:25:27;9.40;99.90
25248;DHT22;13191;47.472;11.214;2023-04-19T15:27:52;9.40;99.90
25248;DHT22;13191;47.472;11.214;2023-04-19T15:30:18;9.40;99.90
25248;DHT22;13191;47.472;11.214;2023-04-19T15:32:43;9.40;99.90
25248;DHT22;13191;47.472;11.214;2023-04-19T15:35:09;9.30;99.90
25248;DHT22;13191;47.472;11.214;2023-04-19T15:37:34;9.30;99.90
25248;DHT22;13191;47.472;11.214;2023-04-19T15:40:00;9.30;99.90
25248;DHT22;13191;47.472;11.214;2023-04-19T15:42:25;9.20;99.90
25248;DHT22;13191;47.472;11.214;2023-04-19T15:44:53;9.20;99.90
25248;DHT22;13191;47.472;11.214;2023-04-19T15:47:18;9.20;99.90
25248;DHT22;13191;47.472;11.214;2023-04-19T15:49:44;9.20;99.90
25248;DHT22;13191;47.472;11.214;2023-04-19T15:52:11;9.20;99.90
25248;DHT22;13191;47.472;11.214;2023-04-19T15:54:36;9.10;99.90
25248;DHT22;13191;47.472;11.214;2023-04-19T15:57:02;9.10;99.90
25248;DHT22;13191;47.472;11.214;2023-04-19T15:59:28;9.00;99.90
25248;DHT22;13191;47.472;11.214;2023-04-19T16:01:53;9.00;99.90
25248;DHT22;13191;47.472;11.214;2023-04-19T16:04:19;8.90;99.90
25248;DHT22;13191;47.472;11.214;2023-04-19T16:06:44;8.90;99.90
25248;DHT22;13191;47.472;11.214;2023-04-19T16:09:10;8.80;99.90
25248;DHT22;13191;47.472;11.214;2023-04-19T16:11:35;8.80;99.90
25248;DHT22;13191;47.472;11.214;2023-04-19T16:14:01;8.80;99.90
25248;DHT22;13191;47.472;11.214;2023-04-19T16:16:26;8.80;99.90
25248;DHT22;13191;47.472;11.214;2023-04-19T16:18:55;8.70;99.90
25248;DHT22;13191;47.472;11.214;2023-04-19T16:21:20;8.60;99.90
25248;DHT22;13191;47.472;11.214;2023-04-19T16:23:46;8.60;99.90
25248;DHT22;13191;47.472;11.214;2023-04-19T16:26:11;8.60;99.90
25248;DHT22;13191;47.472;11.214;2023-04-19T16:28:37;8.60;99.90
25248;DHT22;13191;47.472;11.214;2023-04-19T16:31:02;8.50;99.90
25248;DHT22;13191;47.472;11.214;2023-04-19T16:33:28;8.50;99.90
25248;DHT22;13191;47.472;11.214;2023-04-19T16:35:53;8.50;99.90
25248;DHT22;13191;47.472;11.214;2023-04-19T16:38:19;8.50;99.90
25248;DHT22;13191;47.472;11.214;2023-04-19T16:40:44;8.40;99.90
25248;DHT22;13191;47.472;11.214;2023-04-19T16:43:12;8.40;99.90
25248;DHT22;13191;47.472;11.214;2023-04-19T16:45:38;8.30;99.90
25248;DHT22;13191;47.472;11.214;2023-04-19T17:29:28;7.90;99.90
25248;DHT22;13191;47.472;11.214;2023-04-19T17:31:53;8.00;99.90
25248;DHT22;13191;47.472;11.214;2023-04-19T17:34:20;7.90;99.90
25248;DHT22;13191;47.472;11.214;2023-04-19T17:36:45;7.80;99.90
25248;DHT22;13191;47.472;11.214;2023-04-19T17:39:11;7.60;99.90
25248;DHT22;13191;47.472;11.214;2023-04-19T17:41:36;7.60;99.90
25248;DHT22;13191;47.472;11.214;2023-04-19T17:44:02;7.60;99.90
25248;DHT22;13191;47.472;11.214;2023-04-19T17:46:27;7.50;99.90
25248;DHT22;13191;47.472;11.214;2023-04-19T17:48:52;7.40;99.90
25248;DHT22;13191;47.472;11.214;2023-04-19T17:51:19;7.40;99.90
25248;DHT22;13191;47.472;11.214;2023-04-19T17:53:45;7.30;99.90
25248;DHT22;13191;47.472;11.214;2023-04-19T17:56:11;7.30;99.90
25248;DHT22;13191;47.472;11.214;2023-04-19T17:58:36;7.20;99.90
25248;DHT22;13191;47.472;11.214;2023-04-19T18:01:02;7.20;99.90
25248;DHT22;13191;47.472;11.214;2023-04-19T18:03:27;7.10;99.90
25248;DHT22;13191;47.472;11.214;2023-04-19T18:05:53;7.10;99.90
25248;DHT22;13191;47.472;11.214;2023-04-19T18:08:19;7.10;99.90
25248;DHT22;13191;47.472;11.214;2023-04-19T18:10:44;7.10;99.90
25248;DHT22;13191;47.472;11.214;2023-04-19T18:13:10;7.00;99.90
25248;DHT22;13191;47.472;11.214;2023-04-19T18:15:35;6.90;99.90
25248;DHT22;13191;47.472;11.214;2023-04-19T18:39:54;5.80;99.90
25248;DHT22;13191;47.472;11.214;2023-04-19T18:42:20;5.80;99.90
25248;DHT22;13191;47.472;11.214;2023-04-19T18:44:45;5.80;99.90
25248;DHT22;13191;47.472;11.214;2023-04-19T18:47:11;5.80;99.90
25248;DHT22;13191;47.472;11.214;2023-04-19T18:49:36;5.70;99.90
25248;DHT22;13191;47.472;11.214;2023-04-19T18:52:02;5.60;99.90
25248;DHT22;13191;47.472;11.214;2023-04-19T18:54:27;5.70;99.90
25248;DHT22;13191;47.472;11.214;2023-04-19T18:56:53;5.60;99.90
25248;DHT22;13191;47.472;11.214;2023-04-19T19:01:44;5.40;99.90
25248;DHT22;13191;47.472;11.214;2023-04-19T19:04:10;5.30;99.90
25248;DHT22;13191;47.472;11.214;2023-04-19T19:06:36;5.30;99.90
25248;DHT22;13191;47.472;11.214;2023-04-19T19:09:01;5.20;99.90
25248;DHT22;13191;47.472;11.214;2023-04-19T19:16:20;4.60;99.90
25248;DHT22;13191;47.472;11.214;2023-04-19T19:18:46;4.50;99.90
25248;DHT22;13191;47.472;11.214;2023-04-19T19:21:11;4.50;99.90
25248;DHT22;13191;47.472;11.214;2023-04-19T19:23:37;4.60;99.90
25248;DHT22;13191;47.472;11.214;2023-04-19T19:26:02;4.60;99.90
25248;DHT22;13191;47.472;11.214;2023-04-19T19:28:28;4.60;99.90
25248;DHT22;13191;47.472;11.214;2023-04-19T19:30:53;4.60;99.90
25248;DHT22;13191;47.472;11.214;2023-04-19T19:33:19;4.70;99.90
25248;DHT22;13191;47.472;11.214;2023-04-19T19:35:45;4.60;99.90
25248;DHT22;13191;47.472;11.214;2023-04-19T19:38:10;4.50;99.90
25248;DHT22;13191;47.472;11.214;2023-04-19T19:40:36;4.50;99.90
25248;DHT22;13191;47.472;11.214;2023-04-19T19:43:02;4.40;99.90
25248;DHT22;13191;47.472;11.214;2023-04-19T19:45:28;4.30;99.90
25248;DHT22;13191;47.472;11.214;2023-04-19T19:47:54;4.40;99.90
25248;DHT22;13191;47.472;11.214;2023-04-19T19:50:19;4.50;99.90
25248;DHT22;13191;47.472;11.214;2023-04-19T19:52:45;4.50;99.90
25248;DHT22;13191;47.472;11.214;2023-04-19T19:55:11;4.50;99.90
25248;DHT22;13191;47.472;11.214;2023-04-19T19:57:40;4.60;99.90
25248;DHT22;13191;47.472;11.214;2023-04-19T20:00:07;4.70;99.90
25248;DHT22;13191;47.472;11.214;2023-04-19T20:02:36;4.50;99.90
25248;DHT22;13191;47.472;11.214;2023-04-19T20:05:02;4.30;99.90
25248;DHT22;13191;47.472;11.214;2023-04-19T20:07:27;4.40;99.90
25248;DHT22;13191;47.472;11.214;2023-04-19T20:09:53;4.40;99.90
25248;DHT22;13191;47.472;11.214;2023-04-19T20:12:18;4.40;99.90
25248;DHT22;13191;47.472;11.214;2023-04-19T20:14:44;4.50;99.90
25248;DHT22;13191;47.472;11.214;2023-04-19T20:17:09;4.60;99.90
25248;DHT22;13191;47.472;11.214;2023-04-19T20:19:35;4.50;99.90